In Rescue
 
Open Full Screen Window  High Contrast Mode
Wind Gusting 00 knots
06
July 24, 2024 6:20 PM EDT
Weather Information
Wind Direction
  300 °
Wind Speed
  06 kt (7 mph)
Wind Gust
  00 kt (0 mph)
Altimeter
30.11 in
Visibility
10 SM
Temperature
23° C
73° F
Dewpoint
17° C
63° F
Humidity
69%
1hr Rain Fall
00.00 in.
24hr Rain Fall
00.10 in.
Sky Condition
Overcast @ 4,900 ft
Broken @ 4,100 ft
Few @ 3,300 ft
VFR

METAR KFPK 242220Z AUTO 30006KT 10SM FEW033 BKN041 OVC049 23/17 A3011 RMK AO2

FAA Disclaimer: The data displayed is for advisory purposes only and is not to be used for flight planning or operations.